Time;durP1;ratioP1;P1;durP2;ratioP2;P2;SDS_P1;SDS_P2;PMS_P1;PMS_P2;Temp;Humidity;BMP_temperature;BMP_pressure;BME280_temperature;BME280_humidity;BME280_pressure;Samples;Min_cycle;Max_cycle;Signal;HPM_P1;HPM_P2
2023/05/14 00:09:42;;;;;;;20.10;14.20;;;;;;;7.67;63.58;100097.11;436605;1250;140160;-66
2023/05/14 00:19:47;;;;;;;19.70;14.20;;;;;;;7.55;64.24;100098.13;436780;1250;139415;-66
2023/05/14 00:29:53;;;;;;;23.80;15.50;;;;;;;7.44;64.34;100087.98;436857;1256;139744;-66
2023/05/14 00:39:59;;;;;;;17.50;14.40;;;;;;;7.30;64.53;100092.40;436515;1251;140189;-66
2023/05/14 00:50:07;;;;;;;18.70;15.90;;;;;;;7.17;64.58;100091.19;437500;1254;140435;-65
2023/05/14 01:00:14;;;;;;;17.10;13.80;;;;;;;7.17;64.63;100085.98;437064;1256;139366;-65
2023/05/14 01:10:32;;;;;;;18.90;13.50;;;;;;;7.27;64.50;100093.07;436742;1251;139784;-65
2023/05/14 01:20:38;;;;;;;22.10;14.60;;;;;;;7.17;64.80;100092.05;436530;1254;140269;-65
2023/05/14 01:30:49;;;;;;;17.20;13.00;;;;;;;7.23;65.23;100076.34;436228;1251;140241;-65
2023/05/14 01:40:57;;;;;;;15.00;12.20;;;;;;;7.17;65.60;100053.25;436033;1255;140042;-65
2023/05/14 01:51:02;;;;;;;16.30;13.20;;;;;;;7.04;65.93;100052.57;436215;1254;141056;-65
2023/05/14 02:01:08;;;;;;;17.50;13.60;;;;;;;6.90;66.07;100049.14;436399;1255;139684;-66
2023/05/14 02:11:14;;;;;;;16.10;14.40;;;;;;;6.76;66.06;100044.86;436640;1254;140131;-67
2023/05/14 02:21:20;;;;;;;16.10;13.20;;;;;;;6.55;66.75;100037.31;436613;1254;140219;-66
2023/05/14 02:31:25;;;;;;;17.70;15.50;;;;;;;6.35;67.12;100036.52;436364;1255;139157;-65
2023/05/14 02:41:31;;;;;;;16.90;13.60;;;;;;;6.30;67.52;100025.95;436625;1254;140352;-65
2023/05/14 02:51:37;;;;;;;17.50;14.40;;;;;;;6.32;67.90;100021.73;436591;1255;139756;-65
2023/05/14 03:01:43;;;;;;;17.60;14.40;;;;;;;6.40;67.73;100022.77;436484;1252;139668;-66
2023/05/14 03:11:50;;;;;;;20.90;15.70;;;;;;;6.70;67.75;100019.14;436354;1254;140089;-66
2023/05/14 03:21:55;;;;;;;21.70;16.10;;;;;;;7.09;67.76;100016.49;437317;1255;139644;-64
2023/05/14 03:32:01;;;;;;;16.60;14.90;;;;;;;7.57;67.28;100014.08;436214;1256;139941;-65
2023/05/14 03:42:07;;;;;;;16.90;13.30;;;;;;;8.24;66.91;100008.73;436234;1255;139842;-65
2023/05/14 03:52:13;;;;;;;16.10;14.10;;;;;;;8.82;66.43;100005.46;436230;1254;139727;-65
2023/05/14 04:02:19;;;;;;;12.00;9.70;;;;;;;9.19;65.77;100000.65;436224;1257;139438;-64
2023/05/14 04:12:25;;;;;;;11.40;9.30;;;;;;;9.40;64.93;100001.46;436207;1254;139942;-65
2023/05/14 04:22:31;;;;;;;12.70;9.00;;;;;;;9.63;63.84;100000.95;436436;1251;140375;-66
2023/05/14 04:32:38;;;;;;;10.70;8.10;;;;;;;9.88;62.65;99999.64;436527;1254;140053;-65
2023/05/14 04:42:44;;;;;;;7.40;6.70;;;;;;;10.17;62.03;99998.73;436670;1254;139948;-65
2023/05/14 04:52:49;;;;;;;9.40;7.40;;;;;;;10.42;61.24;99991.79;436751;1254;140562;-66
2023/05/14 05:02:55;;;;;;;10.60;8.20;;;;;;;10.71;60.05;99989.08;437086;1254;139120;-66
2023/05/14 05:13:01;;;;;;;9.20;8.00;;;;;;;11.03;59.46;99992.67;436541;1254;139187;-65
2023/05/14 05:23:07;;;;;;;10.20;7.70;;;;;;;11.37;59.54;99988.02;436326;1251;139550;-66
2023/05/14 05:33:13;;;;;;;10.20;8.50;;;;;;;11.69;58.81;99983.98;436703;1250;139888;-66
2023/05/14 05:43:19;;;;;;;11.40;7.50;;;;;;;12.25;58.09;99978.18;436984;1254;138457;-65
2023/05/14 05:53:25;;;;;;;8.20;6.00;;;;;;;12.72;56.92;99973.19;436499;1254;139185;-67
2023/05/14 06:03:31;;;;;;;8.50;7.20;;;;;;;12.99;55.69;99969.13;436502;1254;138938;-66
2023/05/14 06:13:36;;;;;;;10.90;6.80;;;;;;;13.15;54.77;99973.29;436461;1251;139173;-67
2023/05/14 06:23:42;;;;;;;8.50;7.50;;;;;;;13.44;54.09;99978.90;436906;1254;139452;-66
2023/05/14 06:33:48;;;;;;;8.70;7.20;;;;;;;14.40;52.38;99977.56;436922;1251;139305;-66
2023/05/14 06:43:54;;;;;;;7.10;6.20;;;;;;;16.29;49.95;99962.73;436688;1254;139978;-65
2023/05/14 06:53:59;;;;;;;6.80;5.60;;;;;;;20.36;45.52;99950.70;436393;1251;139094;-66
2023/05/14 07:04:05;;;;;;;4.60;4.10;;;;;;;25.97;39.67;99934.57;436719;1251;138663;-65
2023/05/14 07:14:11;;;;;;;3.40;3.20;;;;;;;31.40;31.14;99905.86;437553;1254;155132;-65
2023/05/14 07:24:17;;;;;;;4.80;3.70;;;;;;;34.65;27.03;99901.38;436766;1251;140183;-65
2023/05/14 07:34:23;;;;;;;4.30;2.70;;;;;;;37.29;22.73;99886.95;436826;1251;138865;-63
2023/05/14 07:44:29;;;;;;;5.10;3.20;;;;;;;37.30;19.81;99887.12;436790;1254;138713;-65
2023/05/14 07:54:34;;;;;;;3.20;2.60;;;;;;;37.22;19.42;99881.02;436590;1251;138523;-63
2023/05/14 08:04:40;;;;;;;4.20;2.80;;;;;;;35.67;18.75;99884.65;436635;1251;139591;-64
2023/05/14 08:14:46;;;;;;;6.80;4.00;;;;;;;28.60;21.89;99885.60;436304;1250;139310;-65
2023/05/14 08:24:52;;;;;;;9.00;3.70;;;;;;;23.82;25.98;99886.46;436606;1251;139835;-66
2023/05/14 08:34:57;;;;;;;9.50;3.10;;;;;;;21.93;28.95;99884.85;436567;1254;139870;-64
2023/05/14 08:45:05;;;;;;;5.40;2.80;;;;;;;21.82;29.74;99867.96;436307;1251;139328;-64
2023/05/14 08:55:13;;;;;;;4.00;3.10;;;;;;;21.63;30.04;99846.84;436551;1254;138718;-67
2023/05/14 09:05:20;;;;;;;4.70;3.30;;;;;;;21.52;31.13;99850.08;436573;1251;139067;-66
2023/05/14 09:15:29;;;;;;;5.90;3.20;;;;;;;21.64;31.40;99840.66;436916;1251;139101;-65
2023/05/14 09:25:34;;;;;;;4.70;2.60;;;;;;;21.28;31.79;99829.48;436530;1251;139128;-65
2023/05/14 09:35:42;;;;;;;2.70;1.70;;;;;;;21.37;31.95;99819.97;436479;1251;141264;-64
2023/05/14 09:45:48;;;;;;;5.00;2.20;;;;;;;21.16;31.46;99799.89;437106;1250;139344;-66
2023/05/14 09:55:54;;;;;;;2.20;1.80;;;;;;;21.14;32.30;99788.52;440195;1250;138679;-64
2023/05/14 10:06:05;;;;;;;3.10;1.60;;;;;;;21.58;32.32;99775.91;436182;1250;138666;-66
2023/05/14 10:16:16;;;;;;;3.80;1.70;;;;;;;20.68;32.68;99770.89;436938;1254;138827;-66
2023/05/14 10:26:23;;;;;;;1.50;1.40;;;;;;;20.09;33.99;99753.38;437109;1251;139626;-66
2023/05/14 10:36:30;;;;;;;1.10;0.70;;;;;;;19.72;34.83;99738.93;436123;1254;139139;-64
2023/05/14 10:46:36;;;;;;;1.20;1.10;;;;;;;20.07;34.78;99723.27;436612;1251;138898;-66
2023/05/14 10:56:45;;;;;;;2.00;1.60;;;;;;;20.34;34.89;99714.97;436408;1251;138540;-67
2023/05/14 11:06:53;;;;;;;4.50;1.50;;;;;;;20.75;34.95;99694.33;436474;1251;139293;-67
2023/05/14 11:16:59;;;;;;;3.90;1.20;;;;;;;20.94;34.60;99694.39;435917;1251;139558;-67
2023/05/14 11:27:07;;;;;;;3.20;0.80;;;;;;;20.85;34.68;99691.25;436577;1250;138598;-66
2023/05/14 11:37:13;;;;;;;0.90;0.80;;;;;;;20.89;34.81;99684.42;436027;1250;138288;-67
2023/05/14 11:47:21;;;;;;;1.20;1.10;;;;;;;21.32;34.35;99674.48;435762;1251;139392;-67
2023/05/14 11:57:27;;;;;;;1.70;1.40;;;;;;;21.39;34.09;99672.55;435881;1254;138997;-67
2023/05/14 12:07:33;;;;;;;1.00;0.90;;;;;;;21.00;34.30;99663.88;436627;1251;139045;-67
2023/05/14 12:17:39;;;;;;;1.20;1.10;;;;;;;20.89;34.45;99660.92;436505;1250;139382;-66
2023/05/14 12:27:46;;;;;;;2.70;1.00;;;;;;;21.00;34.10;99653.23;436370;1251;138622;-66
2023/05/14 12:37:52;;;;;;;1.40;1.10;;;;;;;21.04;34.25;99634.79;437519;1250;138708;-68
2023/05/14 12:47:58;;;;;;;2.70;1.50;;;;;;;20.90;34.43;99623.43;436256;1251;138962;-66
2023/05/14 12:58:04;;;;;;;3.20;1.60;;;;;;;20.99;34.41;99620.20;436730;1250;139009;-67
2023/05/14 13:08:13;;;;;;;1.40;1.10;;;;;;;21.27;34.38;99611.80;436740;1250;139482;-67
2023/05/14 13:18:19;;;;;;;1.00;0.70;;;;;;;21.39;33.91;99599.70;436639;1253;139694;-66
2023/05/14 13:28:24;;;;;;;5.30;1.30;;;;;;;21.36;33.85;99581.88;436617;1253;139454;-66
2023/05/14 13:38:30;;;;;;;1.50;0.90;;;;;;;21.06;34.41;99571.20;436603;1254;138973;-66
2023/05/14 13:48:36;;;;;;;1.50;0.90;;;;;;;21.14;34.33;99560.78;436661;1251;139185;-68
2023/05/14 13:58:42;;;;;;;1.70;0.70;;;;;;;20.98;34.17;99552.02;436652;1250;139144;-66
2023/05/14 14:08:47;;;;;;;1.90;0.80;;;;;;;20.97;34.11;99533.23;436071;1250;138871;-67
2023/05/14 14:18:53;;;;;;;3.60;1.40;;;;;;;21.31;34.16;99526.01;436217;1251;138656;-65
2023/05/14 14:28:59;;;;;;;0.70;0.70;;;;;;;21.46;33.66;99513.49;436022;1251;138763;-66
2023/05/14 14:39:05;;;;;;;3.00;1.20;;;;;;;21.65;33.97;99511.74;435949;1253;139018;-64
2023/05/14 14:49:10;;;;;;;1.10;1.00;;;;;;;21.70;33.61;99508.33;436272;1251;138555;-66
2023/05/14 14:59:16;;;;;;;1.30;1.20;;;;;;;21.46;33.47;99499.40;436098;1250;138508;-66
2023/05/14 15:09:22;;;;;;;1.60;1.40;;;;;;;21.35;33.92;99486.67;435673;1253;139566;-68
2023/05/14 15:19:28;;;;;;;2.50;1.60;;;;;;;21.16;34.17;99473.27;436252;1251;139443;-67
2023/05/14 15:29:34;;;;;;;1.80;1.50;;;;;;;21.09;34.05;99464.85;435936;1254;139105;-67
2023/05/14 15:39:40;;;;;;;1.30;1.20;;;;;;;21.08;34.20;99457.98;436328;1251;139756;-67
2023/05/14 15:49:45;;;;;;;1.30;1.20;;;;;;;21.07;34.18;99453.48;436338;1254;139774;-68
2023/05/14 15:59:51;;;;;;;1.60;1.50;;;;;;;20.94;34.11;99440.13;436300;1254;139937;-66
2023/05/14 16:09:57;;;;;;;2.20;1.50;;;;;;;20.70;34.22;99420.84;436605;1254;138606;-67
2023/05/14 16:20:04;;;;;;;2.10;1.90;;;;;;;20.53;34.48;99409.27;436280;1250;138389;-67
2023/05/14 16:30:11;;;;;;;2.30;1.60;;;;;;;20.33;34.57;99404.73;437363;1251;140754;-66
2023/05/14 16:40:18;;;;;;;3.60;2.60;;;;;;;20.17;34.92;99392.45;439998;1251;139546;-67
2023/05/14 16:50:24;;;;;;;3.90;2.30;;;;;;;20.02;35.40;99399.70;436932;1254;138828;-66
2023/05/14 17:00:29;;;;;;;4.30;1.80;;;;;;;19.83;35.76;99391.47;436524;1256;140048;-66
2023/05/14 17:10:35;;;;;;;6.40;2.10;;;;;;;19.58;36.21;99389.52;436487;1254;140627;-67
2023/05/14 17:20:41;;;;;;;3.00;1.70;;;;;;;19.32;36.92;99387.63;436532;1254;139725;-68
2023/05/14 17:30:47;;;;;;;3.50;1.80;;;;;;;19.03;37.36;99384.35;436075;1253;140965;-67
2023/05/14 17:40:53;;;;;;;1.90;1.70;;;;;;;18.77;37.77;99366.64;436174;1251;139593;-68
2023/05/14 17:50:59;;;;;;;2.80;1.80;;;;;;;18.49;38.31;99367.66;436350;1254;138587;-66
2023/05/14 18:01:05;;;;;;;4.00;2.50;;;;;;;18.25;38.67;99368.21;436206;1254;138297;-66
2023/05/14 18:11:11;;;;;;;4.40;2.80;;;;;;;18.02;39.11;99373.16;436334;1251;139272;-67
2023/05/14 18:21:17;;;;;;;6.20;3.40;;;;;;;17.79;39.88;99368.49;436471;1251;139927;-67
2023/05/14 18:31:26;;;;;;;4.80;3.20;;;;;;;17.58;40.40;99365.67;436660;1251;139452;-67
2023/05/14 18:41:32;;;;;;;3.40;3.10;;;;;;;17.42;41.00;99367.79;436421;1254;138704;-67
2023/05/14 18:51:38;;;;;;;5.40;3.30;;;;;;;17.22;41.81;99359.20;436359;1251;138473;-67
2023/05/14 19:01:44;;;;;;;4.80;3.30;;;;;;;17.09;42.37;99362.02;436542;1254;138509;-67
2023/05/14 19:11:58;;;;;;;3.60;2.70;;;;;;;17.01;42.92;99360.33;422530;1295;600360;-67
2023/05/14 19:22:04;;;;;;;3.70;3.00;;;;;;;16.85;43.48;99354.67;435267;1256;156685;-69
2023/05/14 19:32:10;;;;;;;6.20;3.20;;;;;;;16.70;43.94;99355.00;436349;1256;138288;-68
2023/05/14 19:42:16;;;;;;;7.80;4.10;;;;;;;16.57;44.39;99348.95;436336;1256;138626;-68
2023/05/14 19:52:22;;;;;;;5.40;3.30;;;;;;;16.47;44.80;99335.75;436686;1256;138529;-68
2023/05/14 20:02:28;;;;;;;5.40;3.30;;;;;;;16.38;44.93;99327.23;436554;1253;138522;-67
2023/05/14 20:12:34;;;;;;;4.40;3.20;;;;;;;16.33;45.38;99309.67;436279;1254;140110;-69
2023/05/14 20:22:41;;;;;;;5.80;3.10;;;;;;;16.29;45.50;99293.61;436039;1254;138571;-68
2023/05/14 20:32:47;;;;;;;5.50;3.10;;;;;;;16.23;45.64;99277.87;436342;1255;138219;-67
2023/05/14 20:42:53;;;;;;;8.50;3.10;;;;;;;16.19;45.70;99271.61;435766;1256;137582;-67
2023/05/14 20:52:59;;;;;;;5.80;3.00;;;;;;;16.18;45.53;99257.49;436261;1254;139668;-67
2023/05/14 21:03:05;;;;;;;4.40;2.30;;;;;;;16.14;45.66;99251.88;435523;1256;138041;-66
2023/05/14 21:13:11;;;;;;;6.60;3.10;;;;;;;16.12;45.68;99237.05;435720;1256;138711;-68
2023/05/14 21:23:18;;;;;;;3.60;2.70;;;;;;;16.03;45.75;99223.92;435773;1254;137676;-67
2023/05/14 21:33:24;;;;;;;3.00;2.50;;;;;;;15.95;45.73;99210.23;436027;1256;138997;-67
2023/05/14 21:43:30;;;;;;;3.00;2.70;;;;;;;15.88;45.80;99200.60;437181;1255;138469;-68
2023/05/14 21:53:36;;;;;;;6.30;3.10;;;;;;;15.80;45.92;99185.27;436158;1256;138563;-69
2023/05/14 22:03:42;;;;;;;10.30;3.50;;;;;;;15.69;46.13;99174.44;435984;1256;139793;-68
2023/05/14 22:13:48;;;;;;;8.80;3.10;;;;;;;15.59;46.22;99164.22;435697;1256;137937;-68
2023/05/14 22:23:54;;;;;;;3.80;2.40;;;;;;;15.50;46.41;99149.19;435801;1256;138704;-67
2023/05/14 22:34:00;;;;;;;4.90;2.80;;;;;;;15.42;46.55;99155.89;435631;1256;138365;-68
2023/05/14 22:44:05;;;;;;;7.10;2.30;;;;;;;15.45;46.33;99165.32;436162;1256;138239;-68
2023/05/14 22:54:11;;;;;;;4.20;3.00;;;;;;;15.39;46.50;99160.61;436877;1250;138241;-67
2023/05/14 23:04:17;;;;;;;2.90;2.70;;;;;;;15.18;46.92;99151.33;436425;1251;138654;-67
2023/05/14 23:14:23;;;;;;;8.20;3.50;;;;;;;15.00;47.49;99135.31;436462;1253;138210;-68
2023/05/14 23:24:29;;;;;;;3.10;2.60;;;;;;;14.85;47.90;99126.82;436964;1250;137775;-68
2023/05/14 23:34:34;;;;;;;4.00;3.00;;;;;;;14.69;48.53;99132.95;436784;1251;137833;-69
2023/05/14 23:44:40;;;;;;;5.30;2.50;;;;;;;14.55;49.03;99119.48;436911;1253;137777;-67
2023/05/14 23:54:46;;;;;;;2.90;2.60;;;;;;;14.45;49.41;99118.11;436475;1253;138075;-66
